sensor_id;sensor_type;location;lat;lon;timestamp;pressure;altitude;pressure_sealevel;temperature;humidity
70589;BME280;58152;49.202;18.744;2023-06-22T00:01:04;97682.88;;;21.12;72.26
70589;BME280;58152;49.202;18.744;2023-06-22T00:03:30;97680.44;;;21.09;72.37
70589;BME280;58152;49.202;18.744;2023-06-22T00:05:56;97690.88;;;21.12;72.27
70589;BME280;58152;49.202;18.744;2023-06-22T00:08:22;97685.41;;;21.14;72.69
70589;BME280;58152;49.202;18.744;2023-06-22T00:10:47;97680.22;;;21.12;72.05
70589;BME280;58152;49.202;18.744;2023-06-22T00:13:13;97682.06;;;21.00;72.06
70589;BME280;58152;49.202;18.744;2023-06-22T00:15:40;97696.69;;;21.06;72.04
70589;BME280;58152;49.202;18.744;2023-06-22T00:18:07;97687.16;;;21.03;72.04
70589;BME280;58152;49.202;18.744;2023-06-22T00:20:33;97686.03;;;21.06;71.98
70589;BME280;58152;49.202;18.744;2023-06-22T00:23:06;97693.03;;;21.07;71.88
70589;BME280;58152;49.202;18.744;2023-06-22T00:25:36;97686.03;;;21.06;71.99
70589;BME280;58152;49.202;18.744;2023-06-22T00:28:02;97688.69;;;21.06;71.92
70589;BME280;58152;49.202;18.744;2023-06-22T00:30:28;97676.47;;;21.03;72.03
70589;BME280;58152;49.202;18.744;2023-06-22T00:32:53;97672.22;;;21.01;72.13
70589;BME280;58152;49.202;18.744;2023-06-22T00:35:19;97671.38;;;21.00;72.49
70589;BME280;58152;49.202;18.744;2023-06-22T00:37:44;97680.97;;;21.03;72.52
70589;BME280;58152;49.202;18.744;2023-06-22T00:40:10;97676.13;;;20.97;72.55
70589;BME280;58152;49.202;18.744;2023-06-22T00:42:37;97669.09;;;20.96;72.62
70589;BME280;58152;49.202;18.744;2023-06-22T00:45:03;97677.34;;;20.93;72.77
70589;BME280;58152;49.202;18.744;2023-06-22T00:47:29;97680.59;;;20.96;72.77
70589;BME280;58152;49.202;18.744;2023-06-22T00:49:54;97674.66;;;20.93;72.81
70589;BME280;58152;49.202;18.744;2023-06-22T00:52:21;97664.16;;;20.91;72.88
70589;BME280;58152;49.202;18.744;2023-06-22T00:54:51;97668.63;;;20.91;72.60
70589;BME280;58152;49.202;18.744;2023-06-22T00:57:17;97671.16;;;20.92;72.97
70589;BME280;58152;49.202;18.744;2023-06-22T00:59:48;97673.81;;;20.92;72.72
70589;BME280;58152;49.202;18.744;2023-06-22T01:02:13;97679.53;;;20.88;72.97
70589;BME280;58152;49.202;18.744;2023-06-22T01:04:39;97680.91;;;20.82;72.86
70589;BME280;58152;49.202;18.744;2023-06-22T01:07:17;97689.75;;;20.83;73.20
70589;BME280;58152;49.202;18.744;2023-06-22T01:12:40;97683.84;;;20.68;73.06
70589;BME280;58152;49.202;18.744;2023-06-22T01:15:27;97680.44;;;20.66;73.59
70589;BME280;58152;49.202;18.744;2023-06-22T01:17:56;97662.41;;;20.58;73.46
70589;BME280;58152;49.202;18.744;2023-06-22T01:20:23;97661.91;;;20.64;73.57
70589;BME280;58152;49.202;18.744;2023-06-22T01:26:04;97667.09;;;20.66;73.81
70589;BME280;58152;49.202;18.744;2023-06-22T01:28:46;97670.03;;;20.63;73.93
70589;BME280;58152;49.202;18.744;2023-06-22T01:31:15;97666.53;;;20.62;73.46
70589;BME280;58152;49.202;18.744;2023-06-22T01:33:44;97671.72;;;20.64;73.50
70589;BME280;58152;49.202;18.744;2023-06-22T01:36:11;97662.53;;;20.56;73.59
70589;BME280;58152;49.202;18.744;2023-06-22T01:38:38;97671.72;;;20.52;73.66
70589;BME280;58152;49.202;18.744;2023-06-22T01:41:04;97665.81;;;20.49;73.89
70589;BME280;58152;49.202;18.744;2023-06-22T01:43:30;97668.00;;;20.44;73.92
70589;BME280;58152;49.202;18.744;2023-06-22T01:45:56;97668.00;;;20.44;73.99
70589;BME280;58152;49.202;18.744;2023-06-22T01:48:23;97680.56;;;20.42;73.91
70589;BME280;58152;49.202;18.744;2023-06-22T01:50:49;97662.16;;;20.39;73.92
70589;BME280;58152;49.202;18.744;2023-06-22T01:53:14;97680.56;;;20.42;73.84
70589;BME280;58152;49.202;18.744;2023-06-22T01:55:40;97676.34;;;20.39;73.81
70589;BME280;58152;49.202;18.744;2023-06-22T01:58:06;97682.63;;;20.38;73.96
70589;BME280;58152;49.202;18.744;2023-06-22T02:00:33;97677.28;;;20.38;73.82
70589;BME280;58152;49.202;18.744;2023-06-22T02:03:14;97672.94;;;20.37;73.78
70589;BME280;58152;49.202;18.744;2023-06-22T02:05:50;97672.09;;;20.37;73.78
70589;BME280;58152;49.202;18.744;2023-06-22T02:08:25;97672.94;;;20.37;73.85
70589;BME280;58152;49.202;18.744;2023-06-22T02:10:53;97672.09;;;20.37;74.49
70589;BME280;58152;49.202;18.744;2023-06-22T02:13:20;97677.78;;;20.32;73.65
70589;BME280;58152;49.202;18.744;2023-06-22T02:15:46;97679.84;;;20.28;73.48
70589;BME280;58152;49.202;18.744;2023-06-22T02:18:12;97680.22;;;20.24;73.43
70589;BME280;58152;49.202;18.744;2023-06-22T02:20:38;97682.16;;;20.22;73.58
70589;BME280;58152;49.202;18.744;2023-06-22T02:23:05;97672.50;;;20.21;73.80
70589;BME280;58152;49.202;18.744;2023-06-22T02:25:32;97673.34;;;20.21;73.79
70589;BME280;58152;49.202;18.744;2023-06-22T02:27:58;97670.78;;;20.20;73.80
70589;BME280;58152;49.202;18.744;2023-06-22T02:30:23;97672.94;;;20.15;73.86
70589;BME280;58152;49.202;18.744;2023-06-22T02:32:48;97671.50;;;20.11;73.67
70589;BME280;58152;49.202;18.744;2023-06-22T02:35:14;97670.66;;;20.10;73.83
70589;BME280;58152;49.202;18.744;2023-06-22T02:37:40;97680.47;;;20.10;74.00
70589;BME280;58152;49.202;18.744;2023-06-22T02:40:08;97689.28;;;20.10;74.04
70589;BME280;58152;49.202;18.744;2023-06-22T02:42:37;97685.66;;;20.11;74.41
70589;BME280;58152;49.202;18.744;2023-06-22T02:45:02;97695.38;;;20.12;74.18
70589;BME280;58152;49.202;18.744;2023-06-22T02:47:28;97694.75;;;20.09;74.30
70589;BME280;58152;49.202;18.744;2023-06-22T02:49:53;97696.31;;;20.11;74.15
70589;BME280;58152;49.202;18.744;2023-06-22T02:52:19;97699.34;;;20.06;74.31
70589;BME280;58152;49.202;18.744;2023-06-22T02:54:44;97692.44;;;20.04;74.47
70589;BME280;58152;49.202;18.744;2023-06-22T02:57:11;97699.09;;;20.10;74.62
70589;BME280;58152;49.202;18.744;2023-06-22T02:59:41;97693.44;;;20.03;74.85
70589;BME280;58152;49.202;18.744;2023-06-22T03:02:08;97703.47;;;19.99;74.92
70589;BME280;58152;49.202;18.744;2023-06-22T03:04:34;97693.41;;;19.92;75.34
70589;BME280;58152;49.202;18.744;2023-06-22T03:07:00;97691.09;;;19.87;75.23
70589;BME280;58152;49.202;18.744;2023-06-22T03:09:27;97710.47;;;19.89;75.12
70589;BME280;58152;49.202;18.744;2023-06-22T03:11:53;97704.41;;;19.87;75.09
70589;BME280;58152;49.202;18.744;2023-06-22T03:14:19;97707.19;;;19.86;75.36
70589;BME280;58152;49.202;18.744;2023-06-22T03:16:44;97713.97;;;19.90;75.26
70589;BME280;58152;49.202;18.744;2023-06-22T03:19:12;97706.97;;;19.89;75.13
70589;BME280;58152;49.202;18.744;2023-06-22T03:21:38;97702.72;;;19.86;75.04
70589;BME280;58152;49.202;18.744;2023-06-22T03:24:04;97703.69;;;19.85;74.92
70589;BME280;58152;49.202;18.744;2023-06-22T03:26:30;97699.34;;;19.84;74.73
70589;BME280;58152;49.202;18.744;2023-06-22T03:28:56;97703.06;;;19.82;74.88
70589;BME280;58152;49.202;18.744;2023-06-22T03:31:22;97710.09;;;19.83;74.90
70589;BME280;58152;49.202;18.744;2023-06-22T03:33:53;97703.19;;;19.80;74.75
70589;BME280;58152;49.202;18.744;2023-06-22T03:36:21;97709.38;;;19.80;74.58
70589;BME280;58152;49.202;18.744;2023-06-22T03:38:51;97712.75;;;19.83;74.81
70589;BME280;58152;49.202;18.744;2023-06-22T03:41:16;97711.91;;;19.82;75.10
70589;BME280;58152;49.202;18.744;2023-06-22T03:43:42;97707.31;;;19.84;74.88
70589;BME280;58152;49.202;18.744;2023-06-22T03:46:08;97715.06;;;19.87;74.71
70589;BME280;58152;49.202;18.744;2023-06-22T03:48:33;97709.00;;;19.85;74.77
70589;BME280;58152;49.202;18.744;2023-06-22T03:50:59;97712.53;;;19.86;74.85
70589;BME280;58152;49.202;18.744;2023-06-22T03:53:25;97708.88;;;19.87;74.92
70589;BME280;58152;49.202;18.744;2023-06-22T03:55:51;97709.72;;;19.87;75.27
70589;BME280;58152;49.202;18.744;2023-06-22T03:58:18;97710.56;;;19.88;75.24
70589;BME280;58152;49.202;18.744;2023-06-22T04:00:45;97701.88;;;19.86;75.30
70589;BME280;58152;49.202;18.744;2023-06-22T04:03:11;97708.75;;;19.88;75.47
70589;BME280;58152;49.202;18.744;2023-06-22T04:05:38;97701.88;;;19.86;75.56
70589;BME280;58152;49.202;18.744;2023-06-22T04:08:04;97707.91;;;19.88;75.59
70589;BME280;58152;49.202;18.744;2023-06-22T04:10:30;97706.63;;;19.93;75.85
70589;BME280;58152;49.202;18.744;2023-06-22T04:12:55;97713.00;;;19.91;75.64
70589;BME280;58152;49.202;18.744;2023-06-22T04:15:24;97707.69;;;19.91;75.74
70589;BME280;58152;49.202;18.744;2023-06-22T04:17:49;97719.31;;;19.90;75.83
70589;BME280;58152;49.202;18.744;2023-06-22T04:20:15;97721.72;;;19.93;75.88
70589;BME280;58152;49.202;18.744;2023-06-22T04:22:40;97716.53;;;19.91;75.84
70589;BME280;58152;49.202;18.744;2023-06-22T04:25:06;97725.25;;;19.93;75.70
70589;BME280;58152;49.202;18.744;2023-06-22T04:27:34;97717.50;;;19.90;75.74
70589;BME280;58152;49.202;18.744;2023-06-22T04:30:06;97716.66;;;19.90;75.90
70589;BME280;58152;49.202;18.744;2023-06-22T04:32:35;97713.13;;;19.89;75.96
70589;BME280;58152;49.202;18.744;2023-06-22T04:35:05;97723.53;;;19.92;76.12
70589;BME280;58152;49.202;18.744;2023-06-22T04:37:31;97718.34;;;19.91;75.97
70589;BME280;58152;49.202;18.744;2023-06-22T04:39:57;97716.53;;;19.91;76.14
70589;BME280;58152;49.202;18.744;2023-06-22T04:42:22;97713.84;;;19.91;76.27
70589;BME280;58152;49.202;18.744;2023-06-22T04:44:48;97704.19;;;19.90;76.29
70589;BME280;58152;49.202;18.744;2023-06-22T04:47:13;97716.16;;;19.96;76.17
70589;BME280;58152;49.202;18.744;2023-06-22T04:49:39;97719.06;;;19.93;76.01
70589;BME280;58152;49.202;18.744;2023-06-22T04:52:10;97726.09;;;19.94;76.21
70589;BME280;58152;49.202;18.744;2023-06-22T04:54:36;97727.91;;;19.93;76.24
70589;BME280;58152;49.202;18.744;2023-06-22T04:57:03;97723.44;;;19.94;76.33
70589;BME280;58152;49.202;18.744;2023-06-22T04:59:30;97718.09;;;19.94;76.50
70589;BME280;58152;49.202;18.744;2023-06-22T05:01:59;97719.66;;;19.96;76.26
70589;BME280;58152;49.202;18.744;2023-06-22T05:04:26;97729.34;;;19.97;76.51
70589;BME280;58152;49.202;18.744;2023-06-22T05:06:53;97730.31;;;19.96;76.66
70589;BME280;58152;49.202;18.744;2023-06-22T05:09:18;97734.09;;;19.94;76.56
70589;BME280;58152;49.202;18.744;2023-06-22T05:11:44;97734.09;;;19.94;76.76
70589;BME280;58152;49.202;18.744;2023-06-22T05:14:10;97741.09;;;19.95;76.77
70589;BME280;58152;49.202;18.744;2023-06-22T05:16:36;97740.47;;;19.91;76.69
70589;BME280;58152;49.202;18.744;2023-06-22T05:19:02;97747.13;;;19.97;76.96
70589;BME280;58152;49.202;18.744;2023-06-22T05:21:30;97755.13;;;19.97;76.99
70589;BME280;58152;49.202;18.744;2023-06-22T05:23:56;97746.56;;;19.93;76.77
70589;BME280;58152;49.202;18.744;2023-06-22T05:26:28;97743.16;;;19.91;76.89
70589;BME280;58152;49.202;18.744;2023-06-22T05:28:54;97742.06;;;19.94;76.59
70589;BME280;58152;49.202;18.744;2023-06-22T05:31:20;97734.81;;;19.96;76.67
70589;BME280;58152;49.202;18.744;2023-06-22T05:33:46;97740.25;;;19.94;76.61
70589;BME280;58152;49.202;18.744;2023-06-22T05:36:19;97727.78;;;19.95;76.81
70589;BME280;58152;49.202;18.744;2023-06-22T05:42:53;97736.88;;;20.03;77.11
70589;BME280;58152;49.202;18.744;2023-06-22T05:45:40;97722.81;;;20.01;76.86
70589;BME280;58152;49.202;18.744;2023-06-22T05:55:50;97729.50;;;20.18;76.92
70589;BME280;58152;49.202;18.744;2023-06-22T06:02:53;97736.91;;;20.26;76.85
70589;BME280;58152;49.202;18.744;2023-06-22T06:12:26;97738.09;;;20.33;76.29
70589;BME280;58152;49.202;18.744;2023-06-22T06:14:53;97731.94;;;20.33;76.67
70589;BME280;58152;49.202;18.744;2023-06-22T06:17:26;97727.34;;;20.35;77.49
70589;BME280;58152;49.202;18.744;2023-06-22T06:20:21;97730.50;;;20.40;77.63
70589;BME280;58152;49.202;18.744;2023-06-22T06:22:50;97732.06;;;20.31;77.29
70589;BME280;58152;49.202;18.744;2023-06-22T06:25:19;97740.91;;;20.31;77.02
70589;BME280;58152;49.202;18.744;2023-06-22T06:27:47;97737.75;;;20.26;77.05
70589;BME280;58152;49.202;18.744;2023-06-22T06:33:17;97738.59;;;20.27;77.07
70589;BME280;58152;49.202;18.744;2023-06-22T06:35:48;97741.50;;;20.24;76.94
70589;BME280;58152;49.202;18.744;2023-06-22T06:38:14;97742.94;;;20.28;76.79
70589;BME280;58152;49.202;18.744;2023-06-22T06:40:43;97737.63;;;20.28;77.14
70589;BME280;58152;49.202;18.744;2023-06-22T06:43:09;97745.47;;;20.29;77.13
70589;BME280;58152;49.202;18.744;2023-06-22T06:45:39;97751.69;;;20.30;77.09
70589;BME280;58152;49.202;18.744;2023-06-22T06:48:05;97753.84;;;20.25;77.29
70589;BME280;58152;49.202;18.744;2023-06-22T06:50:37;97759.78;;;20.28;77.25
70589;BME280;58152;49.202;18.744;2023-06-22T06:53:04;97752.28;;;20.22;76.87
70589;BME280;58152;49.202;18.744;2023-06-22T06:55:41;97751.06;;;20.26;76.95
70589;BME280;58152;49.202;18.744;2023-06-22T06:58:09;97751.16;;;20.25;77.00
70589;BME280;58152;49.202;18.744;2023-06-22T07:00:41;97747.56;;;20.26;76.97
70589;BME280;58152;49.202;18.744;2023-06-22T07:03:10;97735.31;;;20.23;76.58
70589;BME280;58152;49.202;18.744;2023-06-22T07:05:57;97746.81;;;20.24;76.73
70589;BME280;58152;49.202;18.744;2023-06-22T07:08:59;97745.25;;;20.21;76.81
70589;BME280;58152;49.202;18.744;2023-06-22T07:11:33;97749.13;;;20.28;76.76
70589;BME280;58152;49.202;18.744;2023-06-22T07:14:07;97745.75;;;20.26;77.00
70589;BME280;58152;49.202;18.744;2023-06-22T07:16:35;97746.34;;;20.30;76.71
70589;BME280;58152;49.202;18.744;2023-06-22T07:19:01;97741.59;;;20.34;76.38
70589;BME280;58152;49.202;18.744;2023-06-22T07:21:30;97741.84;;;20.42;76.33
70589;BME280;58152;49.202;18.744;2023-06-22T07:23:58;97734.00;;;20.40;76.11
70589;BME280;58152;49.202;18.744;2023-06-22T07:26:24;97738.22;;;20.43;76.25
70589;BME280;58152;49.202;18.744;2023-06-22T07:28:51;97741.41;;;20.48;76.29
70589;BME280;58152;49.202;18.744;2023-06-22T07:31:29;97736.94;;;20.48;76.35
70589;BME280;58152;49.202;18.744;2023-06-22T07:34:01;97736.44;;;20.54;76.35
70589;BME280;58152;49.202;18.744;2023-06-22T07:36:29;97734.63;;;20.55;76.49
70589;BME280;58152;49.202;18.744;2023-06-22T07:38:56;97731.81;;;20.56;76.39
70589;BME280;58152;49.202;18.744;2023-06-22T07:41:22;97739.09;;;20.66;76.20
70589;BME280;58152;49.202;18.744;2023-06-22T07:43:48;97732.06;;;20.65;76.25
70589;BME280;58152;49.202;18.744;2023-06-22T07:46:14;97732.81;;;20.67;76.43
70589;BME280;58152;49.202;18.744;2023-06-22T07:48:39;97727.22;;;20.70;76.03
70589;BME280;58152;49.202;18.744;2023-06-22T07:51:09;97734.84;;;20.74;75.87
70589;BME280;58152;49.202;18.744;2023-06-22T07:53:39;97729.97;;;20.79;75.86
70589;BME280;58152;49.202;18.744;2023-06-22T07:56:05;97716.63;;;20.79;75.88
70589;BME280;58152;49.202;18.744;2023-06-22T07:58:35;97725.09;;;20.85;75.85
70589;BME280;58152;49.202;18.744;2023-06-22T08:01:03;97711.69;;;20.86;75.83
70589;BME280;58152;49.202;18.744;2023-06-22T08:03:46;97706.22;;;20.88;76.02
70589;BME280;58152;49.202;18.744;2023-06-22T08:06:13;97708.63;;;20.91;75.87
70589;BME280;58152;49.202;18.744;2023-06-22T08:08:43;97720.47;;;20.98;76.05
70589;BME280;58152;49.202;18.744;2023-06-22T08:11:14;97706.06;;;21.00;76.06
70589;BME280;58152;49.202;18.744;2023-06-22T08:13:42;97713.69;;;21.05;76.01
70589;BME280;58152;49.202;18.744;2023-06-22T08:16:13;97707.38;;;21.06;76.40
70589;BME280;58152;49.202;18.744;2023-06-22T08:18:48;97719.84;;;21.17;77.28
70589;BME280;58152;49.202;18.744;2023-06-22T08:21:13;97714.00;;;21.23;76.58
70589;BME280;58152;49.202;18.744;2023-06-22T08:23:48;97705.75;;;21.26;76.38
70589;BME280;58152;49.202;18.744;2023-06-22T08:26:16;97715.06;;;21.31;76.42
70589;BME280;58152;49.202;18.744;2023-06-22T08:28:43;97706.22;;;21.31;76.70
70589;BME280;58152;49.202;18.744;2023-06-22T08:31:09;97718.91;;;21.39;76.96
70589;BME280;58152;49.202;18.744;2023-06-22T08:33:35;97714.31;;;21.41;76.20
70589;BME280;58152;49.202;18.744;2023-06-22T08:36:00;97707.16;;;21.41;75.98
70589;BME280;58152;49.202;18.744;2023-06-22T08:38:26;97705.19;;;21.43;75.80
70589;BME280;58152;49.202;18.744;2023-06-22T08:40:51;97711.56;;;21.52;75.73
70589;BME280;58152;49.202;18.744;2023-06-22T08:43:18;97706.13;;;21.53;75.69
70589;BME280;58152;49.202;18.744;2023-06-22T08:45:45;97702.47;;;21.54;75.84
70589;BME280;58152;49.202;18.744;2023-06-22T08:48:13;97709.38;;;21.57;76.23
70589;BME280;58152;49.202;18.744;2023-06-22T08:50:39;97707.16;;;21.62;76.48
70589;BME280;58152;49.202;18.744;2023-06-22T08:53:06;97707.63;;;21.67;76.68
70589;BME280;58152;49.202;18.744;2023-06-22T08:55:33;97702.28;;;21.67;76.99
70589;BME280;58152;49.202;18.744;2023-06-22T08:57:58;97699.34;;;21.70;76.93
70589;BME280;58152;49.202;18.744;2023-06-22T09:00:24;97698.09;;;21.74;76.72
70589;BME280;58152;49.202;18.744;2023-06-22T09:02:49;97708.25;;;21.80;76.47
70589;BME280;58152;49.202;18.744;2023-06-22T09:05:15;97703.66;;;21.82;76.53
70589;BME280;58152;49.202;18.744;2023-06-22T09:07:41;97698.91;;;21.86;76.71
70589;BME280;58152;49.202;18.744;2023-06-22T09:10:07;97701.16;;;21.91;76.63
70589;BME280;58152;49.202;18.744;2023-06-22T09:12:33;97686.44;;;21.96;76.73
70589;BME280;58152;49.202;18.744;2023-06-22T09:14:59;97684.06;;;22.03;76.50
70589;BME280;58152;49.202;18.744;2023-06-22T09:17:31;97687.31;;;22.06;77.15
70589;BME280;58152;49.202;18.744;2023-06-22T09:19:56;97679.91;;;22.10;77.59
70589;BME280;58152;49.202;18.744;2023-06-22T09:22:23;97684.06;;;22.24;77.45
70589;BME280;58152;49.202;18.744;2023-06-22T09:25:09;97681.56;;;22.32;78.10
70589;BME280;58152;49.202;18.744;2023-06-22T09:27:35;97680.88;;;22.40;77.04
70589;BME280;58152;49.202;18.744;2023-06-22T09:30:00;97684.97;;;22.44;76.46
70589;BME280;58152;49.202;18.744;2023-06-22T09:32:25;97679.22;;;22.48;76.71
70589;BME280;58152;49.202;18.744;2023-06-22T09:34:51;97672.63;;;22.52;76.67
70589;BME280;58152;49.202;18.744;2023-06-22T09:37:17;97672.47;;;22.54;76.31
70589;BME280;58152;49.202;18.744;2023-06-22T09:39:42;97671.38;;;22.56;76.65
70589;BME280;58152;49.202;18.744;2023-06-22T09:42:08;97665.31;;;22.54;77.19
70589;BME280;58152;49.202;18.744;2023-06-22T09:44:33;97669.41;;;22.58;76.61
70589;BME280;58152;49.202;18.744;2023-06-22T09:46:59;97668.97;;;22.63;76.74
70589;BME280;58152;49.202;18.744;2023-06-22T09:49:24;97658.03;;;22.66;76.96
70589;BME280;58152;49.202;18.744;2023-06-22T09:51:51;97646.22;;;22.69;76.74
70589;BME280;58152;49.202;18.744;2023-06-22T09:54:17;97659.19;;;22.73;77.27
70589;BME280;58152;49.202;18.744;2023-06-22T09:56:43;97651.59;;;22.78;77.45
70589;BME280;58152;49.202;18.744;2023-06-22T09:59:08;97653.69;;;22.84;77.23
70589;BME280;58152;49.202;18.744;2023-06-22T10:01:33;97646.13;;;22.90;77.59
70589;BME280;58152;49.202;18.744;2023-06-22T10:03:59;97639.38;;;22.95;77.53
70589;BME280;58152;49.202;18.744;2023-06-22T10:06:24;97642.34;;;23.02;77.12
70589;BME280;58152;49.202;18.744;2023-06-22T10:08:51;97644.44;;;23.08;77.42
70589;BME280;58152;49.202;18.744;2023-06-22T10:11:16;97646.00;;;23.11;77.36
70589;BME280;58152;49.202;18.744;2023-06-22T10:13:42;97637.69;;;23.14;76.33
70589;BME280;58152;49.202;18.744;2023-06-22T10:16:07;97650.34;;;23.21;75.60
70589;BME280;58152;49.202;18.744;2023-06-22T10:18:33;97646.84;;;23.30;75.08
70589;BME280;58152;49.202;18.744;2023-06-22T10:20:59;97645.41;;;23.36;75.22
70589;BME280;58152;49.202;18.744;2023-06-22T10:23:25;97643.16;;;23.41;75.44
70589;BME280;58152;49.202;18.744;2023-06-22T10:25:50;97643.16;;;23.51;75.15
70589;BME280;58152;49.202;18.744;2023-06-22T10:28:16;97642.00;;;23.63;75.01
70589;BME280;58152;49.202;18.744;2023-06-22T10:30:41;97632.28;;;23.72;74.64
70589;BME280;58152;49.202;18.744;2023-06-22T10:33:08;97633.53;;;23.87;74.27
70589;BME280;58152;49.202;18.744;2023-06-22T10:35:33;97639.38;;;24.00;73.83
70589;BME280;58152;49.202;18.744;2023-06-22T10:38:02;97635.53;;;24.13;72.49
70589;BME280;58152;49.202;18.744;2023-06-22T10:40:27;97638.44;;;24.29;71.74
70589;BME280;58152;49.202;18.744;2023-06-22T10:42:53;97627.38;;;24.42;70.59
70589;BME280;58152;49.202;18.744;2023-06-22T10:45:18;97624.06;;;24.57;70.28
70589;BME280;58152;49.202;18.744;2023-06-22T10:47:43;97611.25;;;24.69;70.06
70589;BME280;58152;49.202;18.744;2023-06-22T10:50:09;97613.81;;;24.89;69.86
70589;BME280;58152;49.202;18.744;2023-06-22T10:52:35;97605.38;;;25.01;69.56
70589;BME280;58152;49.202;18.744;2023-06-22T10:55:00;97606.84;;;25.14;69.39
70589;BME280;58152;49.202;18.744;2023-06-22T10:57:26;97602.09;;;25.25;68.86
70589;BME280;58152;49.202;18.744;2023-06-22T10:59:51;97607.50;;;25.33;68.62
70589;BME280;58152;49.202;18.744;2023-06-22T11:02:17;97608.59;;;25.41;68.88
70589;BME280;58152;49.202;18.744;2023-06-22T11:04:42;97598.22;;;25.46;68.73
70589;BME280;58152;49.202;18.744;2023-06-22T11:07:09;97596.44;;;25.54;68.12
70589;BME280;58152;49.202;18.744;2023-06-22T11:09:34;97598.47;;;25.60;67.22
70589;BME280;58152;49.202;18.744;2023-06-22T11:11:59;97604.63;;;25.71;66.28
70589;BME280;58152;49.202;18.744;2023-06-22T11:14:25;97587.41;;;25.81;66.33
70589;BME280;58152;49.202;18.744;2023-06-22T11:16:50;97586.28;;;25.92;65.55
70589;BME280;58152;49.202;18.744;2023-06-22T11:19:16;97592.38;;;26.02;65.47
70589;BME280;58152;49.202;18.744;2023-06-22T11:21:42;97577.81;;;26.13;65.71
70589;BME280;58152;49.202;18.744;2023-06-22T11:24:07;97579.41;;;26.32;65.59
70589;BME280;58152;49.202;18.744;2023-06-22T11:26:33;97580.09;;;26.42;65.92
70589;BME280;58152;49.202;18.744;2023-06-22T11:28:59;97584.03;;;26.56;65.31
70589;BME280;58152;49.202;18.744;2023-06-22T11:31:25;97587.28;;;26.68;64.77
70589;BME280;58152;49.202;18.744;2023-06-22T11:33:50;97578.03;;;26.78;63.77
70589;BME280;58152;49.202;18.744;2023-06-22T11:36:16;97583.44;;;26.95;63.13
70589;BME280;58152;49.202;18.744;2023-06-22T11:38:42;97586.84;;;27.13;62.84
70589;BME280;58152;49.202;18.744;2023-06-22T11:41:09;97585.84;;;27.22;61.92
70589;BME280;58152;49.202;18.744;2023-06-22T11:43:35;97585.16;;;27.36;61.40
70589;BME280;58152;49.202;18.744;2023-06-22T11:46:02;97579.25;;;27.49;60.93
70589;BME280;58152;49.202;18.744;2023-06-22T11:48:28;97578.19;;;27.67;59.69
70589;BME280;58152;49.202;18.744;2023-06-22T11:50:56;97570.31;;;27.73;58.85
70589;BME280;58152;49.202;18.744;2023-06-22T11:53:23;97563.19;;;27.89;58.18
70589;BME280;58152;49.202;18.744;2023-06-22T11:55:49;97557.59;;;27.98;57.52
70589;BME280;58152;49.202;18.744;2023-06-22T11:58:14;97555.53;;;28.08;57.29
70589;BME280;58152;49.202;18.744;2023-06-22T12:00:40;97555.47;;;28.25;57.88
70589;BME280;58152;49.202;18.744;2023-06-22T12:03:06;97542.78;;;28.33;57.27
70589;BME280;58152;49.202;18.744;2023-06-22T12:05:32;97535.53;;;28.42;56.89
70589;BME280;58152;49.202;18.744;2023-06-22T12:07:57;97534.06;;;28.54;56.60
70589;BME280;58152;49.202;18.744;2023-06-22T12:10:23;97541.09;;;28.63;56.35
70589;BME280;58152;49.202;18.744;2023-06-22T12:12:48;97530.09;;;28.73;55.59
70589;BME280;58152;49.202;18.744;2023-06-22T12:15:14;97544.47;;;28.88;55.33
70589;BME280;58152;49.202;18.744;2023-06-22T12:17:40;97532.00;;;28.96;55.16
70589;BME280;58152;49.202;18.744;2023-06-22T12:20:06;97538.47;;;29.09;54.35
70589;BME280;58152;49.202;18.744;2023-06-22T12:22:32;97524.84;;;29.18;54.44
70589;BME280;58152;49.202;18.744;2023-06-22T12:24:58;97532.69;;;29.27;54.22
70589;BME280;58152;49.202;18.744;2023-06-22T12:27:23;97526.38;;;29.35;53.95
70589;BME280;58152;49.202;18.744;2023-06-22T12:29:48;97527.44;;;29.49;53.67
70589;BME280;58152;49.202;18.744;2023-06-22T12:32:14;97521.78;;;29.58;53.70
70589;BME280;58152;49.202;18.744;2023-06-22T12:34:42;97526.91;;;29.68;52.75
70589;BME280;58152;49.202;18.744;2023-06-22T12:37:08;97524.31;;;29.75;52.95
70589;BME280;58152;49.202;18.744;2023-06-22T12:39:34;97518.81;;;29.83;53.35
70589;BME280;58152;49.202;18.744;2023-06-22T12:41:59;97517.16;;;29.97;52.38
70589;BME280;58152;49.202;18.744;2023-06-22T12:44:24;97520.38;;;30.07;52.08
70589;BME280;58152;49.202;18.744;2023-06-22T12:46:50;97508.34;;;30.09;52.57
70589;BME280;58152;49.202;18.744;2023-06-22T12:49:15;97515.16;;;29.91;51.74
70589;BME280;58152;49.202;18.744;2023-06-22T12:51:42;97513.97;;;29.78;51.79
70589;BME280;58152;49.202;18.744;2023-06-22T12:54:08;97508.09;;;29.75;52.06
70589;BME280;58152;49.202;18.744;2023-06-22T12:56:33;97503.16;;;29.93;51.44
70589;BME280;58152;49.202;18.744;2023-06-22T12:58:59;97495.84;;;30.08;51.36
70589;BME280;58152;49.202;18.744;2023-06-22T13:01:27;97512.75;;;30.25;49.97
70589;BME280;58152;49.202;18.744;2023-06-22T13:03:52;97502.06;;;30.38;50.20
70589;BME280;58152;49.202;18.744;2023-06-22T13:06:18;97505.19;;;30.57;50.58
70589;BME280;58152;49.202;18.744;2023-06-22T13:08:43;97496.34;;;30.70;49.84
70589;BME280;58152;49.202;18.744;2023-06-22T13:11:09;97501.09;;;30.82;48.91
70589;BME280;58152;49.202;18.744;2023-06-22T13:13:34;97501.41;;;30.94;49.02
70589;BME280;58152;49.202;18.744;2023-06-22T13:16:00;97497.72;;;31.02;48.55
70589;BME280;58152;49.202;18.744;2023-06-22T13:18:25;97491.56;;;31.14;48.22
70589;BME280;58152;49.202;18.744;2023-06-22T13:20:50;97482.25;;;31.24;48.70
70589;BME280;58152;49.202;18.744;2023-06-22T13:23:16;97485.69;;;31.32;48.57